Time;durP1;ratioP1;P1;durP2;ratioP2;P2;SDS_P1;SDS_P2;PMS_P1;PMS_P2;Temp;Humidity;BMP_temperature;BMP_pressure;BME280_temperature;BME280_humidity;BME280_pressure;Samples;Min_cycle;Max_cycle;Signal;HPM_P1;HPM_P2
2024/02/27 00:01:49;;;;;;;1.00;0.85;;;;;;;;;;5037027;28;20117;-48
2024/02/27 00:04:16;;;;;;;1.67;1.20;;;;;;;;;;5031983;28;20033;-48
2024/02/27 00:06:43;;;;;;;2.08;0.80;;;;;;;;;;5015285;28;20036;-48
2024/02/27 00:09:14;;;;;;;1.10;0.90;;;;;;;;;;5037533;28;20111;-48
2024/02/27 00:11:43;;;;;;;6.72;0.90;;;;;;;;;;5049519;28;20398;-47
2024/02/27 00:14:09;;;;;;;3.45;1.23;;;;;;;;;;5051598;28;20036;-47
2024/02/27 00:16:35;;;;;;;1.15;0.80;;;;;;;;;;5038827;28;20030;-48
2024/02/27 00:19:02;;;;;;;1.50;0.93;;;;;;;;;;5031733;28;20040;-48
2024/02/27 00:21:29;;;;;;;;;;;;;;;;;;5032175;28;20036;-48
2024/02/27 00:23:55;;;;;;;1.13;1.00;;;;;;;;;;5046611;28;19950;-49
2024/02/27 00:26:21;;;;;;;4.45;1.13;;;;;;;;;;5045373;28;20094;-47
2024/02/27 00:28:47;;;;;;;8.55;1.63;;;;;;;;;;5033422;28;20033;-48
2024/02/27 00:31:13;;;;;;;1.38;0.85;;;;;;;;;;5041781;28;20104;-49
2024/02/27 00:33:39;;;;;;;2.17;0.93;;;;;;;;;;5013923;28;20499;-47
2024/02/27 00:36:06;;;;;;;1.20;1.05;;;;;;;;;;5033327;28;20037;-48
2024/02/27 00:38:32;;;;;;;4.33;2.10;;;;;;;;;;5050216;28;20035;-48
2024/02/27 00:40:58;;;;;;;2.17;1.48;;;;;;;;;;5051304;28;20271;-48
2024/02/27 00:43:24;;;;;;;4.88;1.40;;;;;;;;;;5045600;28;20021;-48
2024/02/27 00:45:51;;;;;;;2.78;1.48;;;;;;;;;;5037466;28;20021;-49
2024/02/27 00:48:17;;;;;;;1.08;0.98;;;;;;;;;;5051303;28;20040;-48
2024/02/27 00:50:43;;;;;;;1.63;1.00;;;;;;;;;;5042238;28;20067;-48
2024/02/27 00:53:09;;;;;;;1.67;0.80;;;;;;;;;;5032537;28;20072;-48
2024/02/27 00:55:36;;;;;;;1.83;0.95;;;;;;;;;;5031289;28;20049;-48
2024/02/27 00:58:02;;;;;;;2.15;0.88;;;;;;;;;;5031369;28;20526;-47
2024/02/27 01:00:28;;;;;;;2.53;0.60;;;;;;;;;;5033084;28;20040;-48
2024/02/27 01:02:54;;;;;;;0.88;0.80;;;;;;;;;;5048168;28;20029;-48
2024/02/27 01:05:20;;;;;;;2.28;0.68;;;;;;;;;;5047700;28;20068;-48
2024/02/27 01:07:47;;;;;;;1.90;0.73;;;;;;;;;;5055149;28;20120;-49
2024/02/27 01:10:13;;;;;;;0.77;0.70;;;;;;;;;;5035410;28;20119;-48
2024/02/27 01:12:39;;;;;;;3.53;0.80;;;;;;;;;;5035158;28;20033;-48
2024/02/27 01:15:05;;;;;;;0.68;0.55;;;;;;;;;;5017332;28;20087;-48
2024/02/27 01:17:32;;;;;;;1.02;0.82;;;;;;;;;;5036137;28;20026;-48
2024/02/27 01:19:58;;;;;;;4.72;1.02;;;;;;;;;;5034994;28;20029;-48
2024/02/27 01:22:28;;;;;;;1.23;0.60;;;;;;;;;;5034963;28;20033;-48
2024/02/27 01:24:58;;;;;;;2.40;0.68;;;;;;;;;;5036010;28;20049;-51
2024/02/27 01:27:25;;;;;;;0.80;0.75;;;;;;;;;;5034789;28;20037;-51
2024/02/27 01:29:51;;;;;;;1.83;1.13;;;;;;;;;;5042565;28;20026;-47
2024/02/27 01:32:17;;;;;;;0.75;0.47;;;;;;;;;;5049157;28;20025;-52
2024/02/27 01:34:44;;;;;;;1.20;0.63;;;;;;;;;;5035296;28;20025;-48
2024/02/27 01:37:10;;;;;;;1.73;0.60;;;;;;;;;;5034516;28;20079;-49
2024/02/27 01:39:36;;;;;;;5.13;0.63;;;;;;;;;;5035703;28;20029;-49
2024/02/27 01:42:03;;;;;;;0.70;0.60;;;;;;;;;;5034642;28;20025;-50
2024/02/27 01:44:29;;;;;;;1.45;0.70;;;;;;;;;;5046324;28;20029;-49
2024/02/27 01:46:56;;;;;;;0.90;0.80;;;;;;;;;;5049527;28;20108;-48
2024/02/27 01:49:22;;;;;;;0.60;0.60;;;;;;;;;;5036546;28;20039;-48
2024/02/27 01:51:49;;;;;;;3.47;0.70;;;;;;;;;;5036627;28;20028;-48
2024/02/27 01:54:20;;;;;;;1.95;0.57;;;;;;;;;;5036671;28;20116;-48
2024/02/27 01:56:48;;;;;;;1.67;0.80;;;;;;;;;;5050779;28;20021;-48
2024/02/27 01:59:16;;;;;;;2.45;0.60;;;;;;;;;;5042745;28;20037;-48
2024/02/27 02:01:43;;;;;;;1.25;0.70;;;;;;;;;;5043698;28;20519;-47
2024/02/27 02:04:12;;;;;;;1.27;0.65;;;;;;;;;;5018815;28;20037;-48
2024/02/27 02:06:39;;;;;;;1.35;0.50;;;;;;;;;;5038305;28;20033;-49
2024/02/27 02:09:05;;;;;;;1.20;0.70;;;;;;;;;;5053823;28;20399;-48
2024/02/27 02:11:32;;;;;;;1.45;0.80;;;;;;;;;;5110506;22;20051;-50
2024/02/27 02:13:58;;;;;;;1.30;0.60;;;;;;;;;;5073851;28;20050;-47
2024/02/27 02:16:24;;;;;;;0.87;0.73;;;;;;;;;;5073898;28;20059;-52
2024/02/27 02:18:50;;;;;;;1.63;0.47;;;;;;;;;;5072644;28;20028;-47
2024/02/27 02:21:16;;;;;;;2.42;0.60;;;;;;;;;;5073756;28;20025;-47
2024/02/27 02:23:44;;;;;;;2.30;0.60;;;;;;;;;;5072684;28;20040;-46
2024/02/27 02:26:10;;;;;;;;;;;;;;;;;;5073432;28;20079;-47
2024/02/27 02:28:36;;;;;;;1.58;0.50;;;;;;;;;;5073558;28;19927;-47
2024/02/27 02:31:02;;;;;;;1.55;0.60;;;;;;;;;;5055673;28;20475;-47
2024/02/27 02:33:28;;;;;;;2.50;0.70;;;;;;;;;;5073760;28;20131;-47
2024/02/27 02:35:55;;;;;;;0.47;0.47;;;;;;;;;;5073357;28;20028;-48
2024/02/27 02:38:21;;;;;;;0.80;0.43;;;;;;;;;;5073365;28;20104;-48
2024/02/27 02:40:48;;;;;;;6.70;1.10;;;;;;;;;;5072229;28;20229;-47
2024/02/27 02:43:14;;;;;;;1.30;0.40;;;;;;;;;;5073446;28;20367;-49
2024/02/27 02:45:41;;;;;;;0.57;0.40;;;;;;;;;;5073292;28;20024;-48
2024/02/27 02:48:07;;;;;;;0.65;0.60;;;;;;;;;;5073357;28;20036;-47
2024/02/27 02:50:35;;;;;;;2.40;0.77;;;;;;;;;;5071876;28;20478;-47
2024/02/27 02:53:01;;;;;;;3.03;0.80;;;;;;;;;;5073184;28;20035;-47
2024/02/27 02:55:28;;;;;;;0.30;0.30;;;;;;;;;;5067579;28;20418;-48
2024/02/27 02:57:55;;;;;;;0.60;0.60;;;;;;;;;;5051539;28;20048;-47
2024/02/27 03:00:21;;;;;;;;;;;;;;;;;;5053483;28;20111;-46
2024/02/27 03:02:47;;;;;;;1.33;0.50;;;;;;;;;;5056429;28;20382;-48
2024/02/27 03:05:13;;;;;;;0.45;0.40;;;;;;;;;;5054920;28;20139;-47
2024/02/27 03:07:40;;;;;;;1.07;0.77;;;;;;;;;;5071670;28;20041;-47
2024/02/27 03:10:08;;;;;;;2.15;0.70;;;;;;;;;;5072363;28;20112;-48
2024/02/27 03:12:35;;;;;;;3.10;0.60;;;;;;;;;;5071310;28;20032;-47
2024/02/27 03:15:01;;;;;;;1.92;0.50;;;;;;;;;;5069980;28;20056;-46
2024/02/27 03:17:27;;;;;;;0.73;0.50;;;;;;;;;;5061070;28;20079;-47
2024/02/27 03:19:53;;;;;;;0.82;0.75;;;;;;;;;;5051471;28;20033;-46
2024/02/27 03:22:20;;;;;;;1.03;0.67;;;;;;;;;;5052598;28;20036;-47
2024/02/27 03:24:46;;;;;;;2.20;0.45;;;;;;;;;;5050977;28;20040;-47
2024/02/27 03:27:12;;;;;;;0.93;0.50;;;;;;;;;;5050372;28;20032;-47
2024/02/27 03:29:39;;;;;;;2.37;0.60;;;;;;;;;;5064590;28;20029;-47
2024/02/27 03:32:05;;;;;;;3.95;1.88;;;;;;;;;;5051292;28;20465;-48
2024/02/27 03:34:33;;;;;;;1.92;0.47;;;;;;;;;;5052691;28;20029;-47
2024/02/27 03:36:59;;;;;;;1.27;0.60;;;;;;;;;;5050679;28;20522;-47
2024/02/27 03:39:26;;;;;;;4.05;0.50;;;;;;;;;;5052248;28;20033;-47
2024/02/27 03:41:52;;;;;;;2.38;0.50;;;;;;;;;;5052227;28;20047;-47
2024/02/27 03:44:18;;;;;;;0.80;0.67;;;;;;;;;;5061710;28;20032;-47
2024/02/27 03:46:44;;;;;;;0.90;0.65;;;;;;;;;;5058035;28;20391;-47
2024/02/27 03:49:10;;;;;;;2.00;0.85;;;;;;;;;;5052253;28;20039;-47
2024/02/27 03:51:37;;;;;;;0.98;0.50;;;;;;;;;;5061347;28;20118;-50
2024/02/27 03:54:04;;;;;;;1.23;0.50;;;;;;;;;;5059272;28;20478;-47
2024/02/27 03:56:30;;;;;;;2.20;0.52;;;;;;;;;;5057006;28;20491;-48
2024/02/27 03:58:56;;;;;;;3.53;0.85;;;;;;;;;;5052080;28;20457;-46
2024/02/27 04:01:23;;;;;;;1.25;0.65;;;;;;;;;;5054158;28;20104;-46
2024/02/27 04:03:49;;;;;;;1.42;0.60;;;;;;;;;;5058590;28;20470;-48
2024/02/27 04:06:16;;;;;;;1.10;0.70;;;;;;;;;;5065518;28;20561;-47
2024/02/27 04:08:42;;;;;;;1.17;0.60;;;;;;;;;;5071589;28;20032;-48
2024/02/27 04:11:08;;;;;;;2.15;0.57;;;;;;;;;;5069815;28;20406;-47
2024/02/27 04:13:34;;;;;;;0.50;0.50;;;;;;;;;;5060521;28;20012;-47
2024/02/27 04:16:00;;;;;;;7.10;1.30;;;;;;;;;;5064887;28;20066;-46
2024/02/27 04:18:27;;;;;;;0.73;0.70;;;;;;;;;;5062855;28;20541;-47
2024/02/27 04:20:53;;;;;;;0.70;0.65;;;;;;;;;;5051704;28;20025;-47
2024/02/27 04:23:20;;;;;;;3.53;0.90;;;;;;;;;;5051666;28;20028;-47
2024/02/27 04:25:46;;;;;;;2.08;0.52;;;;;;;;;;5051442;28;20037;-49
2024/02/27 04:28:13;;;;;;;2.45;0.65;;;;;;;;;;5051534;28;20032;-49
2024/02/27 04:30:39;;;;;;;4.15;0.70;;;;;;;;;;5056265;28;20398;-47
2024/02/27 04:33:06;;;;;;;0.93;0.50;;;;;;;;;;5064336;28;20025;-48
2024/02/27 04:35:32;;;;;;;1.77;0.70;;;;;;;;;;5051229;28;20116;-48
2024/02/27 04:37:58;;;;;;;0.45;0.30;;;;;;;;;;5051481;28;20036;-47
2024/02/27 04:40:25;;;;;;;4.40;1.33;;;;;;;;;;5056471;28;20460;-47
2024/02/27 04:42:51;;;;;;;2.85;0.63;;;;;;;;;;5050547;28;20033;-47
2024/02/27 04:45:18;;;;;;;4.88;1.02;;;;;;;;;;5051671;28;20036;-47
2024/02/27 04:47:44;;;;;;;1.48;0.43;;;;;;;;;;5056388;28;20075;-49
2024/02/27 04:50:10;;;;;;;3.47;0.90;;;;;;;;;;5061005;28;20028;-47
2024/02/27 04:52:37;;;;;;;2.93;0.63;;;;;;;;;;5050906;28;20020;-48
2024/02/27 04:55:03;;;;;;;4.55;0.60;;;;;;;;;;5057841;28;20525;-49
2024/02/27 04:57:30;;;;;;;2.20;1.60;;;;;;;;;;5069475;28;20021;-49
2024/02/27 04:59:57;;;;;;;2.03;0.50;;;;;;;;;;5071314;28;20032;-54
2024/02/27 05:02:23;;;;;;;1.38;0.60;;;;;;;;;;5071167;28;20037;-51
2024/02/27 05:04:49;;;;;;;0.32;0.20;;;;;;;;;;5043600;28;20102;-49
2024/02/27 05:07:15;;;;;;;1.77;1.08;;;;;;;;;;5034684;28;20025;-49
2024/02/27 05:09:41;;;;;;;0.57;0.40;;;;;;;;;;5039883;28;20037;-49
2024/02/27 05:12:08;;;;;;;2.72;0.50;;;;;;;;;;5034125;28;20112;-52
2024/02/27 05:14:34;;;;;;;0.63;0.35;;;;;;;;;;5040096;28;20026;-49
2024/02/27 05:17:00;;;;;;;3.40;0.30;;;;;;;;;;5033681;28;20021;-53
2024/02/27 05:19:26;;;;;;;0.45;0.35;;;;;;;;;;5039820;28;20033;-50
2024/02/27 05:21:52;;;;;;;0.20;0.20;;;;;;;;;;5032856;28;20483;-51
2024/02/27 05:24:19;;;;;;;1.23;0.27;;;;;;;;;;5040937;28;20500;-52
2024/02/27 05:26:45;;;;;;;0.30;0.20;;;;;;;;;;5031590;28;20109;-52
2024/02/27 05:29:11;;;;;;;0.35;0.35;;;;;;;;;;5040073;28;20136;-51
2024/02/27 05:31:37;;;;;;;1.13;0.30;;;;;;;;;;5050493;28;20527;-53
2024/02/27 05:34:04;;;;;;;0.30;0.30;;;;;;;;;;5041967;28;20030;-51
2024/02/27 05:36:30;;;;;;;2.93;0.87;;;;;;;;;;5031033;28;20037;-56
2024/02/27 05:38:56;;;;;;;2.45;0.68;;;;;;;;;;5039190;28;20053;-48
2024/02/27 05:41:22;;;;;;;3.03;2.50;;;;;;;;;;5050909;28;20021;-49
2024/02/27 05:43:49;;;;;;;0.50;0.40;;;;;;;;;;5043411;28;20267;-49
2024/02/27 05:46:16;;;;;;;0.93;0.40;;;;;;;;;;5037443;28;20033;-50
2024/02/27 05:48:43;;;;;;;0.45;0.45;;;;;;;;;;5047550;28;20426;-49
2024/02/27 05:51:09;;;;;;;2.47;1.00;;;;;;;;;;5034566;28;20379;-49
2024/02/27 05:53:36;;;;;;;0.80;0.55;;;;;;;;;;5045743;28;20108;-52
2024/02/27 05:56:02;;;;;;;2.35;0.70;;;;;;;;;;5034337;28;20479;-50
2024/02/27 05:58:29;;;;;;;2.08;1.50;;;;;;;;;;5044791;28;20557;-50
2024/02/27 06:00:55;;;;;;;1.92;1.10;;;;;;;;;;5035418;28;20395;-52
2024/02/27 06:03:22;;;;;;;2.38;0.60;;;;;;;;;;5043393;28;20036;-54
2024/02/27 06:05:49;;;;;;;0.95;0.63;;;;;;;;;;5036232;28;20018;-52
2024/02/27 06:08:15;;;;;;;1.55;0.30;;;;;;;;;;5042555;28;20024;-50
2024/02/27 06:10:42;;;;;;;0.40;0.38;;;;;;;;;;5035534;28;20036;-51
2024/02/27 06:13:08;;;;;;;0.55;0.40;;;;;;;;;;5041549;28;20033;-53
2024/02/27 06:15:35;;;;;;;1.50;0.60;;;;;;;;;;5036602;28;20044;-49
2024/02/27 06:18:01;;;;;;;3.70;3.00;;;;;;;;;;5040409;28;20029;-48
2024/02/27 06:23:12;;;;;;;1.27;0.70;;;;;;;;;;5041939;28;20579;-52
2024/02/27 06:25:38;;;;;;;1.20;0.30;;;;;;;;;;5037009;28;20030;-51
2024/02/27 06:28:05;;;;;;;0.40;0.40;;;;;;;;;;5040854;28;20083;-50
2024/02/27 06:30:31;;;;;;;3.90;0.80;;;;;;;;;;5038038;28;20484;-50
2024/02/27 06:32:57;;;;;;;1.07;0.67;;;;;;;;;;5039582;28;20497;-50
2024/02/27 06:35:24;;;;;;;3.03;2.83;;;;;;;;;;5038995;28;20526;-53
2024/02/27 06:37:51;;;;;;;1.05;0.75;;;;;;;;;;5037553;28;20464;-52
2024/02/27 06:40:17;;;;;;;8.37;7.67;;;;;;;;;;5045966;28;20036;-49
2024/02/27 06:42:43;;;;;;;1.67;0.97;;;;;;;;;;5047439;28;20032;-50
2024/02/27 06:45:10;;;;;;;3.90;1.80;;;;;;;;;;5040677;28;20056;-49
2024/02/27 06:47:42;;;;;;;4.05;3.67;;;;;;;;;;5036551;28;20029;-51
2024/02/27 06:50:09;;;;;;;5.15;4.72;;;;;;;;;;5039596;28;20069;-49
2024/02/27 06:52:36;;;;;;;3.15;2.78;;;;;;;;;;5036510;28;20029;-49
2024/02/27 06:55:05;;;;;;;2.00;1.70;;;;;;;;;;5041748;28;20026;-53
2024/02/27 06:57:35;;;;;;;3.08;1.75;;;;;;;;;;5035541;28;20396;-49
2024/02/27 07:00:01;;;;;;;1.75;1.20;;;;;;;;;;5022985;28;20060;-50
2024/02/27 07:02:27;;;;;;;1.17;0.85;;;;;;;;;;5035785;28;20057;-51
2024/02/27 07:04:54;;;;;;;2.90;1.80;;;;;;;;;;5040548;28;20037;-50
2024/02/27 07:07:20;;;;;;;1.05;0.70;;;;;;;;;;5035600;28;20773;-49
2024/02/27 07:09:46;;;;;;;3.90;3.60;;;;;;;;;;5041594;28;20037;-51
2024/02/27 07:12:12;;;;;;;2.70;1.93;;;;;;;;;;5035824;28;20484;-51
2024/02/27 07:14:42;;;;;;;3.05;0.93;;;;;;;;;;5041864;28;20024;-49
2024/02/27 07:17:12;;;;;;;2.30;0.95;;;;;;;;;;5035507;28;20021;-49
2024/02/27 07:19:43;;;;;;;2.30;1.70;;;;;;;;;;5041471;28;20118;-49
2024/02/27 07:22:09;;;;;;;3.42;1.58;;;;;;;;;;5035470;28;20029;-52
2024/02/27 07:24:35;;;;;;;1.38;1.20;;;;;;;;;;5041505;28;20121;-49
2024/02/27 07:27:02;;;;;;;2.13;1.55;;;;;;;;;;5035383;28;20029;-50
2024/02/27 07:29:29;;;;;;;2.25;1.00;;;;;;;;;;5041351;28;20551;-51
2024/02/27 07:31:55;;;;;;;2.58;2.38;;;;;;;;;;5034560;28;20029;-49
2024/02/27 07:34:21;;;;;;;3.38;2.30;;;;;;;;;;5040687;28;20635;-49
2024/02/27 07:36:48;;;;;;;4.47;2.00;;;;;;;;;;5033252;28;20484;-53
2024/02/27 07:39:15;;;;;;;2.42;1.48;;;;;;;;;;5041922;28;20113;-51
2024/02/27 07:41:45;;;;;;;0.70;0.70;;;;;;;;;;5033057;28;20072;-49
2024/02/27 07:44:11;;;;;;;3.28;1.23;;;;;;;;;;5039976;28;20477;-50
2024/02/27 07:46:37;;;;;;;1.58;1.40;;;;;;;;;;5051679;28;20379;-51
2024/02/27 07:49:03;;;;;;;5.00;3.15;;;;;;;;;;5046118;28;20031;-50
2024/02/27 07:51:29;;;;;;;4.63;1.17;;;;;;;;;;5051475;28;20032;-54
2024/02/27 07:53:56;;;;;;;1.30;1.10;;;;;;;;;;5049329;28;20032;-54
2024/02/27 07:56:22;;;;;;;1.77;0.93;;;;;;;;;;5050796;28;20013;-50
2024/02/27 07:58:49;;;;;;;1.17;0.70;;;;;;;;;;5049264;28;20021;-52
2024/02/27 08:01:15;;;;;;;3.65;0.80;;;;;;;;;;5051314;28;20356;-51
2024/02/27 08:03:42;;;;;;;1.85;1.15;;;;;;;;;;5049109;28;20028;-53
2024/02/27 08:06:08;;;;;;;2.60;1.77;;;;;;;;;;5051429;28;20487;-51
2024/02/27 08:08:35;;;;;;;4.22;1.60;;;;;;;;;;5050591;28;20021;-49
2024/02/27 08:11:06;;;;;;;2.72;1.40;;;;;;;;;;5050923;28;20099;-50
2024/02/27 08:13:32;;;;;;;3.00;1.20;;;;;;;;;;5050488;28;20527;-53
2024/02/27 08:15:58;;;;;;;2.97;1.55;;;;;;;;;;5056101;22;20016;-51
2024/02/27 08:18:25;;;;;;;3.47;1.60;;;;;;;;;;5025518;28;20029;-51
2024/02/27 08:20:51;;;;;;;6.57;2.88;;;;;;;;;;5033298;28;20025;-49
2024/02/27 08:23:18;;;;;;;3.78;2.85;;;;;;;;;;5046391;28;20532;-49
2024/02/27 08:25:44;;;;;;;23.83;17.30;;;;;;;;;;5071492;28;20417;-51
2024/02/27 08:28:10;;;;;;;23.20;21.40;;;;;;;;;;5053824;28;20134;-47
2024/02/27 08:30:37;;;;;;;4.35;2.60;;;;;;;;;;5071641;28;20468;-49
2024/02/27 08:33:03;;;;;;;4.18;3.72;;;;;;;;;;5071625;28;20050;-51
2024/02/27 08:35:30;;;;;;;18.48;14.30;;;;;;;;;;5071521;28;20043;-50
2024/02/27 08:37:57;;;;;;;3.05;1.90;;;;;;;;;;5053741;28;20107;-50
2024/02/27 08:40:23;;;;;;;2.40;2.20;;;;;;;;;;5071655;28;20098;-48
2024/02/27 08:42:50;;;;;;;6.68;5.53;;;;;;;;;;5071651;28;20036;-52
2024/02/27 08:45:17;;;;;;;4.22;3.92;;;;;;;;;;5053449;28;20452;-51
2024/02/27 08:47:43;;;;;;;6.28;5.05;;;;;;;;;;5021379;28;20076;-50
2024/02/27 08:50:11;;;;;;;4.67;3.23;;;;;;;;;;5033816;28;20043;-49
2024/02/27 08:52:38;;;;;;;4.35;1.88;;;;;;;;;;5051563;28;20057;-49
2024/02/27 08:55:04;;;;;;;2.10;1.63;;;;;;;;;;5033521;28;20029;-50
2024/02/27 08:57:30;;;;;;;1.23;1.13;;;;;;;;;;5033453;28;20436;-53
2024/02/27 08:59:57;;;;;;;2.83;0.93;;;;;;;;;;5051310;28;20028;-52
2024/02/27 09:02:24;;;;;;;2.63;1.00;;;;;;;;;;5051244;28;20040;-52
2024/02/27 09:04:50;;;;;;;1.88;1.48;;;;;;;;;;5051343;28;20134;-52
2024/02/27 09:07:17;;;;;;;2.05;1.50;;;;;;;;;;5033190;28;20400;-51
2024/02/27 09:09:44;;;;;;;2.20;1.80;;;;;;;;;;5051187;28;20490;-52
2024/02/27 09:12:10;;;;;;;2.80;1.60;;;;;;;;;;5051533;28;20041;-53
2024/02/27 09:14:36;;;;;;;8.10;4.50;;;;;;;;;;5051204;28;20479;-51
2024/02/27 09:17:03;;;;;;;3.10;1.85;;;;;;;;;;5032773;28;20676;-52
2024/02/27 09:19:29;;;;;;;1.87;1.33;;;;;;;;;;5033586;28;20029;-50
2024/02/27 09:21:56;;;;;;;5.28;1.65;;;;;;;;;;5034866;28;20310;-53
2024/02/27 09:24:22;;;;;;;2.65;2.33;;;;;;;;;;5055020;28;20090;-50
2024/02/27 09:26:48;;;;;;;2.70;1.63;;;;;;;;;;5036930;28;20025;-49
2024/02/27 09:29:15;;;;;;;2.30;1.70;;;;;;;;;;5054639;28;20025;-50
2024/02/27 09:31:42;;;;;;;3.08;1.48;;;;;;;;;;5054740;28;20368;-51
2024/02/27 09:34:10;;;;;;;1.35;1.25;;;;;;;;;;5036929;28;20033;-56
2024/02/27 09:36:36;;;;;;;3.17;1.13;;;;;;;;;;5054652;28;20082;-46
2024/02/27 09:39:03;;;;;;;1.20;0.90;;;;;;;;;;5036989;28;20033;-52
2024/02/27 09:41:38;;;;;;;3.60;2.58;;;;;;;;;;5054704;28;20064;-49
2024/02/27 09:44:04;;;;;;;5.32;3.03;;;;;;;;;;5054495;28;20395;-52
2024/02/27 09:46:32;;;;;;;6.72;3.83;;;;;;;;;;5036141;28;20489;-52
2024/02/27 09:49:00;;;;;;;5.40;3.58;;;;;;;;;;5054427;28;20479;-52
2024/02/27 09:51:27;;;;;;;4.40;2.75;;;;;;;;;;5054463;28;20052;-54
2024/02/27 09:53:54;;;;;;;3.15;2.47;;;;;;;;;;5054454;28;20021;-50
2024/02/27 09:56:24;;;;;;;;;;;;;;;;;;5054629;28;20491;-54
2024/02/27 09:58:50;;;;;;;2.13;1.90;;;;;;;;;;5054445;28;19912;-55
2024/02/27 10:01:21;;;;;;;2.85;1.92;;;;;;;;;;5036717;28;20047;-50
2024/02/27 10:03:47;;;;;;;3.20;2.05;;;;;;;;;;5054287;28;20021;-51
2024/02/27 10:06:18;;;;;;;3.97;2.17;;;;;;;;;;5036181;28;20111;-51
2024/02/27 10:08:48;;;;;;;2.25;1.48;;;;;;;;;;5054085;28;20037;-53
2024/02/27 10:11:14;;;;;;;2.22;1.20;;;;;;;;;;5054217;28;20087;-53
2024/02/27 10:13:41;;;;;;;2.40;2.20;;;;;;;;;;5054255;28;20091;-51
2024/02/27 10:16:07;;;;;;;7.57;6.00;;;;;;;;;;5053761;28;20469;-51
2024/02/27 10:18:33;;;;;;;14.47;10.43;;;;;;;;;;5036144;28;20029;-51
2024/02/27 10:20:59;;;;;;;25.37;18.00;;;;;;;;;;5036374;28;20079;-53
2024/02/27 10:23:25;;;;;;;2.90;2.50;;;;;;;;;;5054088;28;20047;-50
2024/02/27 10:25:52;;;;;;;2.22;1.73;;;;;;;;;;5053748;28;20021;-52
2024/02/27 10:28:18;;;;;;;2.27;1.40;;;;;;;;;;5035997;28;20120;-49
2024/02/27 10:30:45;;;;;;;2.58;1.65;;;;;;;;;;5053652;28;20033;-55
2024/02/27 10:33:14;;;;;;;1.55;0.80;;;;;;;;;;5053110;28;20033;-53
2024/02/27 10:35:41;;;;;;;1.40;0.93;;;;;;;;;;5053300;28;20032;-50
2024/02/27 10:38:18;;;;;;;3.85;1.08;;;;;;;;;;5053607;28;20112;-52
2024/02/27 10:40:44;;;;;;;;;;;;;;;;;;5054028;28;20052;-52
2024/02/27 10:43:11;;;;;;;1.42;1.05;;;;;;;;;;5053626;28;20290;-53
2024/02/27 10:45:37;;;;;;;2.73;1.90;;;;;;;;;;5035378;28;20029;-50
2024/02/27 10:48:04;;;;;;;2.83;1.58;;;;;;;;;;5035555;28;20037;-51
2024/02/27 10:50:32;;;;;;;2.08;1.88;;;;;;;;;;5035421;28;20040;-50
2024/02/27 10:53:00;;;;;;;2.90;2.60;;;;;;;;;;5053321;28;20031;-49
2024/02/27 10:55:28;;;;;;;2.67;2.30;;;;;;;;;;5053114;28;20033;-50
2024/02/27 10:57:59;;;;;;;4.25;2.67;;;;;;;;;;5035148;28;20052;-49
2024/02/27 11:00:29;;;;;;;3.83;2.90;;;;;;;;;;5053178;28;20036;-52
2024/02/27 11:02:58;;;;;;;3.95;3.25;;;;;;;;;;5053046;28;20079;-52
2024/02/27 11:05:28;;;;;;;5.05;2.63;;;;;;;;;;5052771;28;20029;-52
2024/02/27 11:07:58;;;;;;;3.28;2.58;;;;;;;;;;5052912;28;20063;-53
2024/02/27 11:10:26;;;;;;;3.33;1.35;;;;;;;;;;5052952;28;20119;-49
2024/02/27 11:12:53;;;;;;;7.82;2.58;;;;;;;;;;5052908;28;20086;-50
2024/02/27 11:15:20;;;;;;;;;;;;;;;;;;5048981;28;20452;-54
2024/02/27 11:17:48;;;;;;;6.40;5.05;;;;;;;;;;5026425;28;19912;-51
2024/02/27 11:20:18;;;;;;;8.93;5.43;;;;;;;;;;5049173;28;20043;-51
2024/02/27 11:22:45;;;;;;;10.73;4.70;;;;;;;;;;5039585;28;20029;-51
2024/02/27 11:25:11;;;;;;;4.95;1.92;;;;;;;;;;5052189;28;20029;-56
2024/02/27 11:27:38;;;;;;;5.85;4.47;;;;;;;;;;5052317;28;20032;-50
2024/02/27 11:30:05;;;;;;;4.28;3.72;;;;;;;;;;5052244;28;20079;-52
2024/02/27 11:32:32;;;;;;;3.20;2.53;;;;;;;;;;5052107;28;20075;-51
2024/02/27 11:35:01;;;;;;;7.00;4.88;;;;;;;;;;5051173;28;20031;-52
2024/02/27 11:37:27;;;;;;;5.78;3.72;;;;;;;;;;5049601;28;20404;-53
2024/02/27 11:39:54;;;;;;;3.72;2.05;;;;;;;;;;5032089;28;20033;-50
2024/02/27 11:42:32;;;;;;;3.83;2.40;;;;;;;;;;5031206;28;20065;-53
2024/02/27 11:45:02;;;;;;;2.97;1.92;;;;;;;;;;5035765;28;20024;-53
2024/02/27 11:47:34;;;;;;;3.85;2.92;;;;;;;;;;5032723;28;20140;-52
2024/02/27 11:50:00;;;;;;;5.68;2.72;;;;;;;;;;5036487;28;20077;-52
2024/02/27 11:52:28;;;;;;;3.42;2.10;;;;;;;;;;5036414;28;20033;-50
2024/02/27 11:54:57;;;;;;;2.78;2.58;;;;;;;;;;5045599;28;21507;-53
2024/02/27 11:57:24;;;;;;;5.82;2.42;;;;;;;;;;5030735;28;20033;-54
2024/02/27 11:59:50;;;;;;;2.42;2.00;;;;;;;;;;5034500;28;20056;-55
2024/02/27 12:02:19;;;;;;;3.13;2.27;;;;;;;;;;5014447;28;20029;-54
2024/02/27 12:04:46;;;;;;;2.25;2.00;;;;;;;;;;5042272;28;20483;-51
2024/02/27 12:07:12;;;;;;;4.05;3.53;;;;;;;;;;5040767;28;20741;-51
2024/02/27 12:09:39;;;;;;;3.97;1.73;;;;;;;;;;5030388;28;20033;-50
2024/02/27 12:12:05;;;;;;;2.03;1.43;;;;;;;;;;5035410;28;20018;-51
2024/02/27 12:14:31;;;;;;;1.70;1.60;;;;;;;;;;5044213;28;20029;-48
2024/02/27 12:16:58;;;;;;;4.07;1.47;;;;;;;;;;5042941;28;20029;-50
2024/02/27 12:19:26;;;;;;;3.17;2.25;;;;;;;;;;5032191;28;20037;-51
2024/02/27 12:21:52;;;;;;;1.67;1.58;;;;;;;;;;5008768;28;20553;-52
2024/02/27 12:24:19;;;;;;;1.73;1.40;;;;;;;;;;5049274;28;20082;-51
2024/02/27 12:26:49;;;;;;;2.17;1.98;;;;;;;;;;5049903;28;20490;-49
2024/02/27 12:29:17;;;;;;;3.78;2.40;;;;;;;;;;5048091;28;20032;-49
2024/02/27 12:31:43;;;;;;;1.88;1.60;;;;;;;;;;5061131;28;20035;-52
2024/02/27 12:34:09;;;;;;;3.47;2.30;;;;;;;;;;5039424;28;20083;-52
2024/02/27 12:36:36;;;;;;;12.43;8.07;;;;;;;;;;5047332;28;20116;-51
2024/02/27 12:39:02;;;;;;;41.10;31.83;;;;;;;;;;5050038;28;20025;-53
2024/02/27 12:41:28;;;;;;;21.57;13.23;;;;;;;;;;5012120;28;20283;-51
2024/02/27 12:43:55;;;;;;;7.57;6.55;;;;;;;;;;5012394;28;20217;-51
2024/02/27 12:46:22;;;;;;;;;;;;;;;;;;5032935;28;20052;-53
2024/02/27 12:48:48;;;;;;;3.17;2.88;;;;;;;;;;5013415;28;19957;-50
2024/02/27 12:51:15;;;;;;;6.05;3.13;;;;;;;;;;5030002;28;20033;-50
2024/02/27 12:53:42;;;;;;;5.20;2.90;;;;;;;;;;5029875;28;20041;-51
2024/02/27 12:56:09;;;;;;;2.10;1.55;;;;;;;;;;5029918;28;20026;-51
2024/02/27 12:58:36;;;;;;;1.27;1.13;;;;;;;;;;5052743;28;20396;-52
2024/02/27 13:01:02;;;;;;;3.67;1.70;;;;;;;;;;5045732;28;20166;-53
2024/02/27 13:03:29;;;;;;;4.75;3.08;;;;;;;;;;5047686;28;20552;-50
2024/02/27 13:05:55;;;;;;;4.38;2.38;;;;;;;;;;5053346;28;20051;-51
2024/02/27 13:08:21;;;;;;;2.05;1.85;;;;;;;;;;5048757;28;20403;-52
2024/02/27 13:10:48;;;;;;;4.03;1.75;;;;;;;;;;5017224;28;20025;-53
2024/02/27 13:13:16;;;;;;;1.20;1.10;;;;;;;;;;5045793;28;20147;-52
2024/02/27 13:15:43;;;;;;;1.70;1.38;;;;;;;;;;5030102;28;20033;-51
2024/02/27 13:18:09;;;;;;;;;;;;;;;;;;5043322;28;20094;-54
2024/02/27 13:20:36;;;;;;;2.97;2.42;;;;;;;;;;5053487;28;20387;-54
2024/02/27 13:23:02;;;;;;;1.63;1.30;;;;;;;;;;5041696;28;20033;-52
2024/02/27 13:25:29;;;;;;;1.23;1.13;;;;;;;;;;5033316;28;20487;-50
2024/02/27 13:27:55;;;;;;;2.10;1.20;;;;;;;;;;5013800;28;20529;-51
2024/02/27 13:30:21;;;;;;;1.38;1.20;;;;;;;;;;5034476;28;20128;-49
2024/02/27 13:32:47;;;;;;;1.10;0.90;;;;;;;;;;5025916;28;20842;-50
2024/02/27 13:35:14;;;;;;;1.10;1.00;;;;;;;;;;5053200;28;20024;-50
2024/02/27 13:37:40;;;;;;;1.90;1.70;;;;;;;;;;5035457;28;20103;-51
2024/02/27 13:40:07;;;;;;;2.97;1.63;;;;;;;;;;5053521;28;20048;-49
2024/02/27 13:42:33;;;;;;;1.75;1.40;;;;;;;;;;5045051;28;20452;-52
2024/02/27 13:44:59;;;;;;;3.10;1.00;;;;;;;;;;5042265;28;20372;-50
2024/02/27 13:47:26;;;;;;;3.57;1.53;;;;;;;;;;5051272;28;20040;-51
2024/02/27 13:49:53;;;;;;;3.72;1.20;;;;;;;;;;5026093;28;20575;-54
2024/02/27 13:52:19;;;;;;;2.17;1.60;;;;;;;;;;5039067;28;20057;-51
2024/02/27 13:54:45;;;;;;;2.28;2.08;;;;;;;;;;5033571;28;20438;-52
2024/02/27 13:57:12;;;;;;;1.07;0.80;;;;;;;;;;5035009;28;20082;-52
2024/02/27 13:59:38;;;;;;;3.35;1.20;;;;;;;;;;5052975;28;20741;-52
2024/02/27 14:02:04;;;;;;;1.50;1.20;;;;;;;;;;5052725;28;20028;-53
2024/02/27 14:04:30;;;;;;;1.73;0.93;;;;;;;;;;5052692;28;20029;-53
2024/02/27 14:06:57;;;;;;;0.87;0.87;;;;;;;;;;5033296;28;20033;-54
2024/02/27 14:09:24;;;;;;;3.20;2.22;;;;;;;;;;5032382;28;20113;-52
2024/02/27 14:11:50;;;;;;;4.22;2.88;;;;;;;;;;5032733;28;20499;-52
2024/02/27 14:14:17;;;;;;;1.70;1.40;;;;;;;;;;5032617;28;20022;-53
2024/02/27 14:16:44;;;;;;;3.83;1.30;;;;;;;;;;5015332;28;20041;-53
2024/02/27 14:19:10;;;;;;;1.67;1.02;;;;;;;;;;5032758;28;20041;-51
2024/02/27 14:21:36;;;;;;;2.50;0.90;;;;;;;;;;5035391;28;20045;-50
2024/02/27 14:24:03;;;;;;;1.90;1.20;;;;;;;;;;5044130;28;20028;-55
2024/02/27 14:26:29;;;;;;;2.05;1.40;;;;;;;;;;5056132;28;20032;-55
2024/02/27 14:28:56;;;;;;;1.50;1.40;;;;;;;;;;5065065;28;20039;-51
2024/02/27 14:31:24;;;;;;;3.22;1.85;;;;;;;;;;5062393;28;20021;-52
2024/02/27 14:33:50;;;;;;;2.30;1.67;;;;;;;;;;5060505;28;20029;-54
2024/02/27 14:36:16;;;;;;;2.15;1.90;;;;;;;;;;5046344;28;20093;-52
2024/02/27 14:38:42;;;;;;;2.50;1.60;;;;;;;;;;5048115;28;20028;-49
2024/02/27 14:41:08;;;;;;;1.40;1.30;;;;;;;;;;5043807;28;20029;-53
2024/02/27 14:43:35;;;;;;;4.03;2.63;;;;;;;;;;5046229;28;20108;-51
2024/02/27 14:46:02;;;;;;;2.47;2.28;;;;;;;;;;5038425;28;20032;-52